Main page
METAR-TAF:

METAR-TAF

Airports :

Eleusina, Greece

latitude: 38-04N, longitude: 023-33E, elevation: 44 m

Current weather observation

The report was made 24 minutes ago, at 01:50 UTC
Calm wind
Temperature 25°C
Humidity 54%
Pressure 1009 hPa
Visibility 10 km or more
no clouds below 1500 m and no cumulonimbus

METAR: LGEL 290150Z 00000KT CAVOK 25/15 Q1009

Time: 05:14 (02:14 UTC)

Forecast

The report was made 3 hours and 14 minutes ago, at 23:00 UTC
Forecast valid from 29 at 00 UTC to 29 at 24 UTC
Wind 3 kt from variable directions
Visibility 10 km or more
Few clouds at a height of 2500 ft
Becoming
from 29 at 09 UTC to 29 at 11 UTC
Wind 10 kt from the South/Southwest

TAF: LGEL 282300Z 2900/2924 VRB03KT 9999 FEW025 BECMG 2909/2911 20010KT

Weather observations and forecasts of more than 4000 airports (METAR and TAF reports).

The available stations are represented by yellow and red dots on the map.

Hover mouse over dot to see the name of the station.

Then click to see weather observations and forecasts.

To change the map : click on the green buttons with a black cross to zoom in, on the green button with a dash to zoom out, or on the green arrows for adjacent maps.


METAR-TAF: